createdAt,value
2018-12-24T00:01:26.540Z,97050.98
2018-12-24T00:04:31.733Z,97044.60
2018-12-24T00:07:36.807Z,97029.73
2018-12-24T00:10:42.007Z,97019.94
2018-12-24T00:13:47.091Z,97019.30
2018-12-24T00:16:52.256Z,97020.95
2018-12-24T00:19:57.323Z,97017.58
2018-12-24T00:23:02.571Z,97027.97
2018-12-24T00:26:07.641Z,97035.03
2018-12-24T00:29:12.800Z,97021.03
2018-12-24T00:32:17.866Z,97035.86
2018-12-24T00:35:23.130Z,97034.09
2018-12-24T00:38:28.204Z,97030.15
2018-12-24T00:41:33.415Z,97018.89
2018-12-24T00:44:38.490Z,97002.19
2018-12-24T00:47:43.996Z,97003.62
2018-12-24T00:50:49.469Z,97005.76
2018-12-24T00:53:54.993Z,96999.78
2018-12-24T00:57:00.368Z,97004.30
2018-12-24T01:00:06.566Z,97008.34
2018-12-24T01:03:11.938Z,97004.14
2018-12-24T01:06:17.579Z,96999.38
2018-12-24T01:09:22.953Z,96994.20
2018-12-24T01:12:28.598Z,96989.17
2018-12-24T01:15:33.971Z,96983.09
2018-12-24T01:18:39.487Z,96987.86
2018-12-24T01:21:44.862Z,96987.03
2018-12-24T01:24:50.386Z,96982.34
2018-12-24T01:27:55.759Z,96986.39
2018-12-24T01:31:01.382Z,96981.14
2018-12-24T01:34:06.805Z,96970.16
2018-12-24T01:37:12.374Z,96961.08
2018-12-24T01:40:17.745Z,96956.19
2018-12-24T01:43:23.275Z,96943.44
2018-12-24T01:46:28.676Z,96938.64
2018-12-24T01:49:34.131Z,96926.93
2018-12-24T01:52:39.534Z,96924.30
2018-12-24T01:55:45.055Z,96929.56
2018-12-24T01:58:50.432Z,96926.93
2018-12-24T02:01:55.955Z,96919.91
2018-12-24T02:05:01.422Z,96916.09
2018-12-24T02:08:06.952Z,96911.77
2018-12-24T02:11:12.322Z,96906.15
2018-12-24T02:14:17.848Z,96889.56
2018-12-24T02:17:23.221Z,96883.08
2018-12-24T02:20:28.739Z,96877.49
2018-12-24T02:23:34.124Z,96878.80
2018-12-24T02:26:39.634Z,96871.61
2018-12-24T02:29:45.280Z,96850.83
2018-12-24T02:32:50.834Z,96856.53
2018-12-24T02:35:56.217Z,96846.41
2018-12-24T02:39:01.815Z,96833.39
2018-12-24T02:42:07.193Z,96807.63
2018-12-24T02:45:12.727Z,96819.44
2018-12-24T02:48:18.116Z,96841.38
2018-12-24T02:51:23.635Z,96833.51
2018-12-24T02:54:29.214Z,96827.52
2018-12-24T02:57:35.229Z,96813.07
2018-12-24T03:00:40.616Z,96805.31
2018-12-24T03:03:46.151Z,96784.91
2018-12-24T03:06:51.529Z,96772.47
2018-12-24T03:09:57.025Z,96764.59
2018-12-24T03:13:03.280Z,96781.40
2018-12-24T03:16:08.961Z,96784.52
2018-12-24T03:19:14.343Z,96771.59
2018-12-24T03:22:19.842Z,96760.27
2018-12-24T03:25:25.213Z,96765.52
2018-12-24T03:28:30.721Z,96767.39
2018-12-24T03:31:36.096Z,96772.64
2018-12-24T03:34:41.621Z,96758.69
2018-12-24T03:37:46.996Z,96757.75
2018-12-24T03:40:53.082Z,96746.31
2018-12-24T03:43:58.462Z,96735.44
2018-12-24T03:47:04.022Z,96744.26
2018-12-24T03:50:09.393Z,96735.07
2018-12-24T03:53:14.917Z,96722.77
2018-12-24T03:56:20.385Z,96749.50
2018-12-24T03:59:25.857Z,96746.88
2018-12-24T04:02:31.228Z,96754.19
2018-12-24T04:05:36.808Z,96750.81
2018-12-24T04:08:42.192Z,96733.13
2018-12-24T04:11:47.696Z,96723.61
2018-12-24T04:14:53.170Z,96731.11
2018-12-24T04:17:58.663Z,96724.17
2018-12-24T04:21:04.038Z,96722.61
2018-12-24T04:24:09.600Z,96711.17
2018-12-24T04:27:14.962Z,96704.61
2018-12-24T04:30:20.484Z,96680.50
2018-12-24T04:33:25.865Z,96728.86
2018-12-24T04:36:31.380Z,96743.17
2018-12-24T04:39:36.758Z,96727.42
2018-12-24T04:42:42.479Z,96716.93
2018-12-24T04:45:47.856Z,96719.92
2018-12-24T04:48:53.371Z,96737.32
2018-12-24T04:51:58.797Z,96749.99
2018-12-24T04:55:04.369Z,96740.55
2018-12-24T04:58:09.841Z,96745.80
2018-12-24T05:01:15.363Z,96745.80
2018-12-24T05:04:20.744Z,96742.23
2018-12-24T05:07:26.534Z,96748.31
2018-12-24T05:10:31.911Z,96758.32
2018-12-24T05:13:40.951Z,96765.74
2018-12-24T05:16:44.548Z,96760.61
2018-12-24T05:19:50.086Z,96762.86
2018-12-24T05:22:55.469Z,96743.62
2018-12-24T05:26:00.990Z,96766.31
2018-12-24T05:29:06.369Z,96776.92
2018-12-24T05:32:11.881Z,96763.09
2018-12-24T05:35:17.262Z,96757.47
2018-12-24T05:38:22.777Z,96751.28
2018-12-24T05:41:28.207Z,96757.09
2018-12-24T05:44:33.772Z,96756.16
2018-12-24T05:47:39.151Z,96760.55
2018-12-24T05:50:44.667Z,96781.54
2018-12-24T05:53:50.047Z,96760.29
2018-12-24T05:56:55.562Z,96758.64
2018-12-24T06:00:01.028Z,96784.87
2018-12-24T06:03:06.543Z,96793.31
2018-12-24T06:06:11.921Z,96800.48
2018-12-24T06:09:17.549Z,96795.42
2018-12-24T06:12:22.931Z,96783.16
2018-12-24T06:15:28.582Z,96804.27
2018-12-24T06:18:34.264Z,96797.11
2018-12-24T06:21:39.751Z,96794.74
2018-12-24T06:24:45.130Z,96798.05
2018-12-24T06:27:50.592Z,96812.48
2018-12-24T06:30:55.965Z,96794.11
2018-12-24T06:34:01.431Z,96801.64
2018-12-24T06:37:06.813Z,96803.03
2018-12-24T06:40:12.331Z,96814.39
2018-12-24T06:43:17.711Z,96826.65
2018-12-24T06:46:23.225Z,96825.71
2018-12-24T06:49:28.649Z,96826.91
2018-12-24T06:52:34.221Z,96845.66
2018-12-24T06:55:39.601Z,96851.98
2018-12-24T06:58:45.115Z,96857.05
2018-12-24T07:01:50.593Z,96878.04
2018-12-24T07:04:56.111Z,96885.31
2018-12-24T07:08:01.491Z,96884.59
2018-12-24T07:11:07.007Z,96893.78
2018-12-24T07:14:15.529Z,96904.28
2018-12-24T07:17:20.008Z,96903.80
2018-12-24T07:20:25.383Z,96907.25
2018-12-24T07:23:30.943Z,96916.92
2018-12-24T07:26:36.325Z,96928.16
2018-12-24T07:29:41.841Z,96936.48
2018-12-24T07:32:47.221Z,96944.36
2018-12-24T07:35:53.038Z,96950.81
2018-12-24T07:38:58.420Z,96960.86
2018-12-24T07:42:03.881Z,96967.87
2018-12-24T07:45:09.259Z,96984.94
2018-12-24T07:48:14.830Z,96986.62
2018-12-24T07:51:20.209Z,96997.13
2018-12-24T07:54:25.720Z,97007.62
2018-12-24T07:57:31.422Z,97010.73
2018-12-24T08:00:36.981Z,97029.09
2018-12-24T08:03:42.425Z,97035.13
2018-12-24T08:06:48.022Z,97043.98
2018-12-24T08:09:53.404Z,97060.12
2018-12-24T08:12:59.018Z,97070.66
2018-12-24T08:16:04.474Z,97082.78
2018-12-24T08:19:10.134Z,97094.91
2018-12-24T08:22:15.498Z,97112.63
2018-12-24T08:25:20.974Z,97120.25
2018-12-24T08:28:26.351Z,97135.24
2018-12-24T08:31:31.907Z,97149.58
2018-12-24T08:34:37.282Z,97156.05
2018-12-24T08:37:42.902Z,97175.69
2018-12-24T08:40:48.282Z,97199.19
2018-12-24T08:43:53.794Z,97206.47
2018-12-24T08:46:59.181Z,97228.79
2018-12-24T08:50:05.682Z,97235.86
2018-12-24T08:53:11.063Z,97256.02
2018-12-24T08:56:16.605Z,97251.41
2018-12-24T08:59:21.981Z,97267.09
2018-12-24T09:02:27.762Z,97284.20
2018-12-24T09:05:33.149Z,97298.21
2018-12-24T09:08:38.669Z,97311.53
2018-12-24T09:11:44.051Z,97324.70
2018-12-24T09:14:50.277Z,97328.04
2018-12-24T09:17:55.965Z,97341.48
2018-12-24T09:21:01.516Z,97353.87
2018-12-24T09:24:06.896Z,97360.07
2018-12-24T09:27:12.414Z,97370.14
2018-12-24T09:30:18.581Z,97382.70
2018-12-24T09:33:24.124Z,97393.77
2018-12-24T09:36:29.508Z,97405.15
2018-12-24T09:39:35.015Z,97407.55
2018-12-24T09:42:40.406Z,97419.89
2018-12-24T09:45:47.754Z,97433.61
2018-12-24T09:48:53.134Z,97447.23
2018-12-24T09:51:58.647Z,97443.00
2018-12-24T09:55:06.951Z,97452.75
2018-12-24T09:58:12.515Z,97455.53
2018-12-24T10:01:17.930Z,97467.20
2018-12-24T10:04:25.742Z,97477.66
2018-12-24T10:07:40.184Z,97477.58
2018-12-24T10:10:45.358Z,97486.28
2018-12-24T10:13:50.989Z,97484.98
2018-12-24T10:16:56.684Z,97489.30
2018-12-24T10:20:02.051Z,97484.27
2018-12-24T10:23:07.554Z,97493.03
2018-12-24T10:26:12.938Z,97488.44
2018-12-24T10:29:19.615Z,97500.03
2018-12-24T10:32:25.058Z,97504.25
2018-12-24T10:35:30.573Z,97516.56
2018-12-24T10:38:36.393Z,97512.17
2018-12-24T10:41:41.893Z,97522.94
2018-12-24T10:44:47.266Z,97525.08
2018-12-24T10:47:52.778Z,97526.47
2018-12-24T10:50:58.157Z,97532.68
2018-12-24T10:54:03.663Z,97533.12
2018-12-24T10:57:09.110Z,97531.97
2018-12-24T11:00:14.663Z,97539.48
2018-12-24T11:03:20.112Z,97538.66
2018-12-24T11:06:25.691Z,97548.86
2018-12-24T11:09:31.608Z,97554.87
2018-12-24T11:12:37.429Z,97547.74
2018-12-24T11:15:42.810Z,97552.96
2018-12-24T11:18:48.374Z,97560.02
2018-12-24T11:21:53.768Z,97563.53
2018-12-24T11:24:59.260Z,97574.69
2018-12-24T11:28:04.642Z,97585.06
2018-12-24T11:31:10.156Z,97588.84
2018-12-24T11:34:15.543Z,97599.53
2018-12-24T11:37:21.227Z,97598.11
2018-12-24T11:40:26.615Z,97599.41
2018-12-24T11:43:32.491Z,97601.63
2018-12-24T11:46:37.859Z,97603.52
2018-12-24T11:49:43.349Z,97608.67
2018-12-24T11:52:50.283Z,97608.16
2018-12-24T11:55:55.784Z,97612.91
2018-12-24T11:59:01.239Z,97616.14
2018-12-24T12:02:10.035Z,97624.56
2018-12-24T12:05:13.860Z,97627.33
2018-12-24T12:08:19.614Z,97626.09
2018-12-24T12:11:24.997Z,97632.74
2018-12-24T12:14:30.611Z,97641.56
2018-12-24T12:17:35.994Z,97643.92
2018-12-24T12:20:41.516Z,97654.98
2018-12-24T12:23:47.221Z,97667.71
2018-12-24T12:26:52.715Z,97673.38
2018-12-24T12:29:58.108Z,97671.70
2018-12-24T12:33:03.703Z,97681.75
2018-12-24T12:36:09.169Z,97694.41
2018-12-24T12:39:14.801Z,97689.19
2018-12-24T12:42:20.231Z,97685.81
2018-12-24T12:45:25.900Z,97706.30
2018-12-24T12:48:31.283Z,97701.59
2018-12-24T12:51:36.800Z,97713.47
2018-12-24T12:54:42.187Z,97724.06
2018-12-24T12:57:47.675Z,97741.03
2018-12-24T13:00:53.141Z,97745.71
2018-12-24T13:03:58.693Z,97751.40
2018-12-24T13:07:04.074Z,97752.64
2018-12-24T13:10:09.587Z,97763.48
2018-12-24T13:13:15.055Z,97777.44
2018-12-24T13:16:20.593Z,97781.09
2018-12-24T13:19:26.134Z,97795.45
2018-12-24T13:22:31.686Z,97800.81
2018-12-24T13:25:37.126Z,97809.98
2018-12-24T13:28:42.597Z,97813.33
2018-12-24T13:31:47.973Z,97828.59
2018-12-24T13:34:53.463Z,97832.60
2018-12-24T13:37:58.843Z,97841.80
2018-12-24T13:41:04.460Z,97851.41
2018-12-24T13:44:09.916Z,97854.42
2018-12-24T13:47:15.455Z,97868.24
2018-12-24T13:50:58.476Z,97872.20
2018-12-24T13:54:04.281Z,97879.76
2018-12-24T13:57:09.557Z,97892.28
2018-12-24T14:00:15.024Z,97900.52
2018-12-24T14:03:20.301Z,97897.91
2018-12-24T14:06:25.739Z,97915.34
2018-12-24T14:09:31.013Z,97924.01
2018-12-24T14:12:36.415Z,97923.17
2018-12-24T14:15:41.779Z,97929.30
2018-12-24T14:18:47.203Z,97937.19
2018-12-24T14:21:52.479Z,97939.87
2018-12-24T14:24:59.048Z,97944.62
2018-12-24T14:28:04.282Z,97951.55
2018-12-24T14:31:09.704Z,97954.66
2018-12-24T14:34:16.568Z,97954.78
2018-12-24T14:37:22.025Z,97964.82
2018-12-24T14:40:27.309Z,97965.84
2018-12-24T14:43:32.713Z,97972.90
2018-12-24T14:46:37.996Z,97975.11
2018-12-24T14:49:43.404Z,97993.38
2018-12-24T14:52:48.684Z,97995.64
2018-12-24T14:55:54.094Z,98001.33
2018-12-24T14:58:59.382Z,98004.78
2018-12-24T15:02:04.741Z,98009.53
2018-12-24T15:05:10.018Z,98012.67
2018-12-24T15:08:15.479Z,98024.84
2018-12-24T15:11:20.767Z,98032.73
2018-12-24T15:14:26.129Z,98034.50
2018-12-24T15:17:31.443Z,98045.44
2018-12-24T15:20:36.850Z,98051.19
2018-12-24T15:23:42.127Z,98056.05
2018-12-24T15:26:47.542Z,98060.87
2018-12-24T15:29:52.820Z,98068.27
2018-12-24T15:32:58.224Z,98077.48
2018-12-24T15:36:03.501Z,98082.76
2018-12-24T15:39:08.915Z,98084.06
2018-12-24T15:42:14.193Z,98085.48
2018-12-24T15:45:19.591Z,98094.67
2018-12-24T15:48:24.933Z,98106.47
2018-12-24T15:51:30.297Z,98114.79
2018-12-24T15:54:35.577Z,98120.55
2018-12-24T15:57:40.985Z,98124.03
2018-12-24T16:00:46.260Z,98130.55
2018-12-24T16:03:51.694Z,98135.37
2018-12-24T16:06:56.955Z,98140.17
2018-12-24T16:10:02.314Z,98146.70
2018-12-24T16:13:07.589Z,98147.16
2018-12-24T16:16:13.051Z,98158.08
2018-12-24T16:19:18.429Z,98161.09
2018-12-24T16:22:23.847Z,98162.34
2018-12-24T16:25:29.116Z,98169.39
2018-12-24T16:28:34.531Z,98169.88
2018-12-24T16:31:39.813Z,98176.51
2018-12-24T16:34:45.222Z,98183.52
2018-12-24T16:37:50.511Z,98187.43
2018-12-24T16:40:55.890Z,98190.86
2018-12-24T16:44:01.168Z,98193.05
2018-12-24T16:47:06.601Z,98202.30
2018-12-24T16:50:11.882Z,98198.92
2018-12-24T16:53:17.239Z,98204.67
2018-12-24T16:56:22.522Z,98212.50
2018-12-24T16:59:28.080Z,98223.03
2018-12-24T17:02:33.363Z,98226.52
2018-12-24T17:05:38.771Z,98227.82
2018-12-24T17:08:44.044Z,98236.08
2018-12-24T17:11:49.462Z,98242.70
2018-12-24T17:14:54.746Z,98254.02
2018-12-24T17:18:02.159Z,98258.04
2018-12-24T17:21:07.177Z,98266.27
2018-12-24T17:24:12.681Z,98269.77
2018-12-24T17:27:17.955Z,98271.97
2018-12-24T17:30:23.368Z,98276.72
2018-12-24T17:33:28.644Z,98285.01
2018-12-24T17:36:34.062Z,98285.90
2018-12-24T17:39:39.336Z,98286.31
2018-12-24T17:42:44.749Z,98281.98
2018-12-24T17:45:50.027Z,98294.65
2018-12-24T17:48:55.445Z,98296.02
2018-12-24T17:52:00.726Z,98292.05
2018-12-24T17:55:06.531Z,98295.17
2018-12-24T17:58:11.789Z,98295.66
2018-12-24T18:01:17.229Z,98303.53
2018-12-24T18:04:22.508Z,98294.41
2018-12-24T18:07:27.918Z,98292.69
2018-12-24T18:10:33.192Z,98295.34
2018-12-24T18:13:38.606Z,98300.13
2018-12-24T18:16:43.879Z,98298.88
2018-12-24T18:19:49.297Z,98296.28
2018-12-24T18:22:54.729Z,98308.37
2018-12-24T18:26:00.080Z,98309.32
2018-12-24T18:29:05.440Z,98313.79
2018-12-24T18:32:10.881Z,98321.99
2018-12-24T18:35:16.161Z,98321.99
2018-12-24T18:38:21.563Z,98332.42
2018-12-24T18:41:26.840Z,98341.55
2018-12-24T18:44:32.257Z,98342.00
2018-12-24T18:47:37.539Z,98346.81
2018-12-24T18:50:42.948Z,98345.50
2018-12-24T18:53:48.224Z,98352.02
2018-12-24T18:56:53.750Z,98349.83
2018-12-24T18:59:59.020Z,98348.16
2018-12-24T19:03:04.428Z,98343.41
2018-12-24T19:06:09.704Z,98355.14
2018-12-24T19:09:15.117Z,98363.80
2018-12-24T19:12:20.419Z,98362.02
2018-12-24T19:15:25.804Z,98365.47
2018-12-24T19:18:31.159Z,98364.63
2018-12-24T19:21:43.722Z,98368.08
2018-12-24T19:24:43.520Z,98368.97
2018-12-24T19:27:48.924Z,98367.61
2018-12-24T19:30:54.204Z,98369.37
2018-12-24T19:33:59.622Z,98369.84
2018-12-24T19:37:04.914Z,98367.28
2018-12-24T19:40:10.403Z,98381.11
2018-12-24T19:43:15.682Z,98383.30
2018-12-24T19:46:21.359Z,98386.33
2018-12-24T19:49:26.811Z,98391.06
2018-12-24T19:52:32.198Z,98397.48
2018-12-24T19:55:37.476Z,98400.89
2018-12-24T19:58:42.887Z,98397.39
2018-12-24T20:01:48.165Z,98404.32
2018-12-24T20:04:53.548Z,98401.08
2018-12-24T20:07:59.067Z,98410.20
2018-12-24T20:11:04.829Z,98410.31
2018-12-24T20:14:10.104Z,98411.66
2018-12-24T20:17:15.466Z,98411.80
2018-12-24T20:20:20.746Z,98412.22
2018-12-24T20:23:26.112Z,98410.92
2018-12-24T20:26:31.383Z,98410.97
2018-12-24T20:29:36.752Z,98416.23
2018-12-24T20:32:42.033Z,98410.69
2018-12-24T20:35:47.559Z,98417.63
2018-12-24T20:38:52.851Z,98408.59
2018-12-24T20:41:58.348Z,98413.81
2018-12-24T20:45:03.702Z,98410.32
2018-12-24T20:48:09.229Z,98412.50
2018-12-24T20:51:16.238Z,98406.87
2018-12-24T20:54:22.776Z,98410.36
2018-12-24T20:57:28.070Z,98407.76
2018-12-24T21:00:33.470Z,98413.02
2018-12-24T21:03:38.748Z,98416.55
2018-12-24T21:06:44.280Z,98406.13
2018-12-24T21:09:49.533Z,98410.93
2018-12-24T21:12:54.950Z,98409.72
2018-12-24T21:16:00.228Z,98410.60
2018-12-24T21:19:05.645Z,98422.42
2018-12-24T21:22:10.925Z,98418.51
2018-12-24T21:25:16.368Z,98422.09
2018-12-24T21:28:21.717Z,98437.81
2018-12-24T21:31:27.119Z,98431.77
2018-12-24T21:34:32.408Z,98428.74
2018-12-24T21:37:37.817Z,98427.95
2018-12-24T21:40:43.236Z,98425.44
2018-12-24T21:43:48.917Z,98422.83
2018-12-24T21:46:54.417Z,98431.91
2018-12-24T21:49:59.804Z,98430.13
2018-12-24T21:53:05.390Z,98431.39
2018-12-24T21:56:10.977Z,98430.05
2018-12-24T21:59:16.560Z,98440.41
2018-12-24T22:02:22.114Z,98445.67
2018-12-24T22:05:27.390Z,98445.20
2018-12-24T22:08:32.821Z,98454.33
2018-12-24T22:11:38.093Z,98454.33
2018-12-24T22:14:43.825Z,98449.59
2018-12-24T22:17:49.104Z,98452.14
2018-12-24T22:20:54.480Z,98452.61
2018-12-24T22:23:59.758Z,98452.52
2018-12-24T22:27:05.273Z,98456.05
2018-12-24T22:30:10.817Z,98457.73
2018-12-24T22:33:16.190Z,98453.87
2018-12-24T22:36:21.472Z,98452.52
2018-12-24T22:39:26.957Z,98452.14
2018-12-24T22:42:32.281Z,98456.98
2018-12-24T22:45:37.755Z,98459.59
2018-12-24T22:48:43.033Z,98460.98
2018-12-24T22:51:48.439Z,98474.09
2018-12-24T22:54:53.711Z,98464.17
2018-12-24T22:57:59.231Z,98473.38
2018-12-24T23:01:04.584Z,98478.21
2018-12-24T23:04:10.024Z,98484.80
2018-12-24T23:07:15.303Z,98487.75
2018-12-24T23:10:20.713Z,98492.99
2018-12-24T23:13:25.991Z,98488.21
2018-12-24T23:16:31.409Z,98488.70
2018-12-24T23:19:36.729Z,98489.52
2018-12-24T23:22:42.572Z,98480.48
2018-12-24T23:25:48.227Z,98479.64
2018-12-24T23:28:53.700Z,98487.95
2018-12-24T23:31:59.119Z,98487.13
2018-12-24T23:35:04.528Z,98485.44
2018-12-24T23:38:09.804Z,98496.31
2018-12-24T23:41:15.285Z,98495.98
2018-12-24T23:44:20.634Z,98490.77
2018-12-24T23:47:26.077Z,98498.54
2018-12-24T23:50:31.351Z,98500.30
2018-12-24T23:53:37.073Z,98495.94
2018-12-24T23:56:42.348Z,98500.64
2018-12-24T23:59:47.764Z,98498.03
